Time;durP1;ratioP1;P1;durP2;ratioP2;P2;SDS_P1;SDS_P2;PMS_P1;PMS_P2;Temp;Humidity;BMP_temperature;BMP_pressure;BME280_temperature;BME280_humidity;BME280_pressure;Samples;Min_cycle;Max_cycle;Signal;HPM_P1;HPM_P2
2022/08/02 10:27:03;;;;;;;0.40;0.30;;;34.00;31.00;;;;;;4852045;29;29386;-85
2022/08/02 10:29:37;;;;;;;0.43;0.30;;;34.00;30.00;;;;;;4887596;29;20846;-85
2022/08/02 10:32:36;;;;;;;0.95;0.50;;;33.90;29.80;;;;;;4853911;29;20421;-85
2022/08/02 10:35:10;;;;;;;0.30;0.30;;;33.90;30.00;;;;;;4848783;29;20991;-82
2022/08/02 10:37:54;;;;;;;0.80;0.40;;;33.80;29.60;;;;;;4880478;29;20432;-82
2022/08/02 10:40:22;;;;;;;0.70;0.30;;;33.60;30.00;;;;;;4863702;29;20422;-83
2022/08/02 10:42:53;;;;;;;1.90;0.40;;;33.80;32.40;;;;;;4873209;29;20434;-84
2022/08/02 10:45:21;;;;;;;0.87;0.50;;;34.10;30.90;;;;;;4874515;29;20404;-84
2022/08/02 10:48:11;;;;;;;0.82;0.30;;;34.30;31.50;;;;;;4881479;29;20440;-84
2022/08/02 10:51:01;;;;;;;0.57;0.38;;;34.40;29.90;;;;;;4851800;29;20473;-84
2022/08/02 10:53:30;;;;;;;0.82;0.30;;;34.40;29.80;;;;;;4864069;29;20434;-84
2022/08/02 10:56:03;;;;;;;0.37;0.27;;;34.40;29.20;;;;;;4866585;29;20425;-87
2022/08/02 10:58:32;;;;;;;2.10;0.40;;;34.30;29.80;;;;;;4861767;29;20562;-83
2022/08/02 11:01:05;;;;;;;1.10;0.30;;;34.30;30.00;;;;;;4857390;29;20440;-83
2022/08/02 11:03:38;;;;;;;1.10;0.30;;;34.30;30.00;;;;;;4848267;29;20435;-83
2022/08/02 11:06:11;;;;;;;1.67;0.47;;;34.20;29.80;;;;;;4867207;29;20798;-84
2022/08/02 11:09:31;;;;;;;0.80;0.32;;;34.30;30.00;;;;;;4881245;29;20431;-84
2022/08/02 11:12:03;;;;;;;2.22;0.47;;;34.50;30.00;;;;;;4863784;29;20464;-82
2022/08/02 11:14:32;;;;;;;0.55;0.30;;;34.70;29.80;;;;;;4866916;29;20795;-84
2022/08/02 11:17:04;;;;;;;3.08;0.50;;;34.60;28.80;;;;;;4871603;29;20851;-83
2022/08/02 11:19:33;;;;;;;0.75;0.40;;;34.20;28.80;;;;;;4867352;29;20430;-84
2022/08/02 11:22:11;;;;;;;0.70;0.40;;;33.80;29.70;;;;;;4867933;29;20970;-83
2022/08/02 11:24:39;;;;;;;0.95;0.32;;;33.70;30.20;;;;;;4873543;29;20841;-84
2022/08/02 11:27:08;;;;;;;0.60;0.40;;;33.50;31.10;;;;;;4862627;29;20905;-84
2022/08/02 11:29:40;;;;;;;1.55;0.40;;;33.40;31.10;;;;;;4882622;29;20411;-84
2022/08/02 11:32:26;;;;;;;1.65;0.40;;;33.50;31.40;;;;;;4866807;29;20425;-83
2022/08/02 11:34:57;;;;;;;2.97;0.60;;;33.60;31.30;;;;;;4858470;29;20936;-83
2022/08/02 11:37:35;;;;;;;1.00;0.40;;;33.80;29.60;;;;;;4861091;29;20423;-84
2022/08/02 11:40:19;;;;;;;1.80;0.47;;;33.70;30.30;;;;;;4864889;29;20440;-85
2022/08/02 11:42:52;;;;;;;0.90;0.40;;;33.70;30.80;;;;;;4876335;29;20469;-83
2022/08/02 11:45:24;;;;;;;0.85;0.40;;;33.60;30.60;;;;;;4891935;29;20829;-81
2022/08/02 11:47:56;;;;;;;0.90;0.40;;;33.40;31.10;;;;;;4869102;29;20869;-81
2022/08/02 11:50:26;;;;;;;1.10;0.40;;;33.20;31.60;;;;;;4863040;29;21156;-82
2022/08/02 11:52:56;;;;;;;1.05;0.30;;;33.00;30.40;;;;;;4867151;29;20830;-81
2022/08/02 11:55:28;;;;;;;0.68;0.40;;;32.70;31.50;;;;;;4883880;29;20479;-82
2022/08/02 11:57:59;;;;;;;0.80;0.40;;;32.50;31.80;;;;;;4874473;29;20851;-83
2022/08/02 12:00:30;;;;;;;1.07;0.40;;;32.30;33.20;;;;;;4877110;29;20785;-81
2022/08/02 12:02:57;;;;;;;1.38;0.45;;;32.10;33.10;;;;;;4881589;29;20448;-80
2022/08/02 12:05:25;;;;;;;0.50;0.40;;;31.90;32.80;;;;;;4865200;29;20434;-83
2022/08/02 12:08:12;;;;;;;1.05;0.60;;;31.90;33.40;;;;;;4871042;29;20491;-84
2022/08/02 12:10:49;;;;;;;1.40;0.50;;;32.00;34.80;;;;;;4873387;29;20429;-82
2022/08/02 12:13:16;;;;;;;1.15;0.40;;;32.20;34.10;;;;;;4882451;29;20471;-81
2022/08/02 12:15:45;;;;;;;1.00;0.52;;;32.50;33.20;;;;;;4866397;29;20446;-80
2022/08/02 12:21:00;;;;;;;1.17;0.50;;;33.00;32.30;;;;;;4867238;29;20441;-81
2022/08/02 12:23:28;;;;;;;0.70;0.40;;;33.30;32.20;;;;;;4880134;29;20456;-81
2022/08/02 12:26:06;;;;;;;1.65;0.50;;;33.50;32.50;;;;;;4866280;29;20444;-81
2022/08/02 12:28:40;;;;;;;0.85;0.50;;;33.80;31.30;;;;;;4865844;29;20538;-79
2022/08/02 12:31:16;;;;;;;2.90;0.47;;;33.80;30.10;;;;;;4876568;29;20431;-80
2022/08/02 12:33:48;;;;;;;1.13;0.40;;;33.90;30.20;;;;;;4865960;29;20419;-82
2022/08/02 12:36:17;;;;;;;1.25;0.40;;;33.90;30.80;;;;;;4868283;29;20483;-79
2022/08/02 12:38:54;;;;;;;1.30;0.40;;;34.10;30.40;;;;;;4855363;29;20430;-79
2022/08/02 12:41:21;;;;;;;0.75;0.30;;;34.20;30.20;;;;;;4856341;29;20448;-80
2022/08/02 12:43:59;;;;;;;1.00;0.30;;;34.30;29.80;;;;;;4869990;29;20428;-79
2022/08/02 12:46:26;;;;;;;1.55;0.47;;;34.30;30.00;;;;;;4872562;29;20898;-80
2022/08/02 12:48:53;;;;;;;2.50;0.40;;;34.30;30.00;;;;;;4868659;29;20424;-81
2022/08/02 12:51:40;;;;;;;1.02;0.50;;;34.60;29.90;;;;;;4871347;29;20459;-81
2022/08/02 12:54:26;;;;;;;1.17;0.50;;;34.50;29.60;;;;;;4864671;29;20496;-81
2022/08/02 12:57:12;;;;;;;0.95;0.40;;;34.40;30.00;;;;;;4867062;29;20436;-80
2022/08/02 12:59:41;;;;;;;1.58;0.40;;;34.40;29.90;;;;;;4872129;29;20425;-82
2022/08/02 13:02:10;;;;;;;1.63;0.50;;;34.40;30.00;;;;;;4865392;29;20454;-80
2022/08/02 13:04:39;;;;;;;1.20;0.43;;;34.50;30.00;;;;;;4869781;29;20464;-81
2022/08/02 13:07:07;;;;;;;2.00;0.40;;;34.60;30.10;;;;;;4861742;29;20883;-82
2022/08/02 13:09:37;;;;;;;0.90;0.33;;;34.80;30.00;;;;;;4862985;29;20833;-81
2022/08/02 13:12:06;;;;;;;0.60;0.40;;;34.90;29.40;;;;;;4859934;29;20430;-80
2022/08/02 13:14:34;;;;;;;1.60;0.50;;;35.00;29.00;;;;;;4862040;29;20524;-79
2022/08/02 13:17:11;;;;;;;1.00;0.47;;;34.80;29.30;;;;;;4862571;29;20435;-80
2022/08/02 13:19:39;;;;;;;2.63;0.45;;;34.70;29.30;;;;;;4867303;29;20426;-81
2022/08/02 13:22:06;;;;;;;2.30;0.40;;;34.50;29.80;;;;;;4855246;29;20431;-80
2022/08/02 13:24:36;;;;;;;0.70;0.40;;;34.60;29.40;;;;;;4860730;29;20443;-80
2022/08/02 13:27:21;;;;;;;1.00;0.40;;;34.50;29.30;;;;;;4857392;29;20417;-82
2022/08/02 13:29:49;;;;;;;0.85;0.50;;;34.60;29.40;;;;;;4874187;29;20425;-81
2022/08/02 13:32:16;;;;;;;0.40;0.40;;;34.60;29.90;;;;;;4867344;29;20481;-82
2022/08/02 13:34:44;;;;;;;1.45;0.40;;;34.50;29.60;;;;;;4868069;29;20483;-80
2022/08/02 13:37:11;;;;;;;0.93;0.38;;;34.70;30.00;;;;;;4864537;29;20425;-81
2022/08/02 13:39:38;;;;;;;1.13;0.38;;;34.90;29.40;;;;;;4860610;29;20508;-82
2022/08/02 13:42:05;;;;;;;0.90;0.40;;;35.00;29.30;;;;;;4866641;29;20433;-83
2022/08/02 13:44:33;;;;;;;0.45;0.45;;;35.10;29.30;;;;;;4878856;29;20459;-80
2022/08/02 13:47:01;;;;;;;0.98;0.50;;;35.40;29.70;;;;;;4865187;29;20460;-83
2022/08/02 13:49:29;;;;;;;1.40;0.50;;;35.60;29.60;;;;;;4872308;29;20472;-83
2022/08/02 13:52:16;;;;;;;1.80;0.70;;;35.50;28.70;;;;;;4853865;29;20835;-82
2022/08/02 13:54:43;;;;;;;1.33;0.40;;;35.30;29.00;;;;;;4858310;29;20457;-81
2022/08/02 13:57:10;;;;;;;0.75;0.40;;;35.20;29.20;;;;;;4854791;29;20485;-83
2022/08/02 13:59:37;;;;;;;1.90;0.45;;;35.40;29.80;;;;;;4850658;29;20789;-81
2022/08/02 14:02:25;;;;;;;0.90;0.40;;;35.50;29.90;;;;;;4856926;29;20435;-84
2022/08/02 14:04:52;;;;;;;0.55;0.40;;;35.50;30.10;;;;;;4851337;29;20421;-83
2022/08/02 14:07:19;;;;;;;1.30;0.40;;;35.50;30.20;;;;;;4862078;29;20454;-83
2022/08/02 14:09:47;;;;;;;2.20;0.40;;;35.60;29.40;;;;;;4866568;29;20395;-83
2022/08/02 14:12:14;;;;;;;1.02;0.40;;;35.70;29.40;;;;;;4861702;29;20427;-83
2022/08/02 14:14:41;;;;;;;1.60;0.50;;;35.70;29.20;;;;;;4855459;29;20450;-82
2022/08/02 14:17:09;;;;;;;0.38;0.30;;;35.50;29.30;;;;;;4854185;29;20502;-82
2022/08/02 14:19:37;;;;;;;0.87;0.40;;;35.50;29.50;;;;;;4856656;29;20435;-83
2022/08/02 14:22:05;;;;;;;0.82;0.50;;;35.70;29.60;;;;;;4862463;29;20425;-83
2022/08/02 14:24:47;;;;;;;1.00;0.50;;;35.70;29.10;;;;;;4851926;29;20451;-83
2022/08/02 14:27:14;;;;;;;1.52;0.60;;;35.70;29.50;;;;;;4864147;29;20429;-82
2022/08/02 14:29:41;;;;;;;0.77;0.40;;;35.70;29.30;;;;;;4854261;29;20447;-85
2022/08/02 14:32:08;;;;;;;1.33;0.50;;;35.70;29.40;;;;;;4870331;29;20437;-85
2022/08/02 14:34:37;;;;;;;3.05;0.50;;;35.50;29.60;;;;;;4871310;29;20439;-82
2022/08/02 14:37:04;;;;;;;1.20;0.50;;;35.20;29.70;;;;;;4880130;29;20423;-85
2022/08/02 14:39:30;;;;;;;1.10;0.40;;;35.30;30.00;;;;;;4879360;29;20904;-86
2022/08/02 14:42:17;;;;;;;2.25;0.65;;;35.60;29.70;;;;;;4869124;29;20513;-84
2022/08/02 14:44:44;;;;;;;2.83;0.70;;;35.50;29.70;;;;;;4866343;29;20844;-90
2022/08/02 14:47:11;;;;;;;2.17;0.65;;;35.40;30.10;;;;;;4874945;29;20431;-86
2022/08/02 14:49:38;;;;;;;2.63;0.50;;;35.40;30.60;;;;;;4869067;29;20548;-90
2022/08/02 14:52:09;;;;;;;1.20;0.60;;;35.50;30.80;;;;;;4875442;29;20428;-90
2022/08/02 14:54:36;;;;;;;1.10;0.40;;;35.50;30.20;;;;;;4869695;29;20916;-89
2022/08/02 14:57:03;;;;;;;1.13;0.40;;;35.50;30.00;;;;;;4864238;29;20437;-87
2022/08/02 14:59:30;;;;;;;1.48;0.50;;;35.60;31.10;;;;;;4862064;29;20494;-86
2022/08/02 15:01:58;;;;;;;1.10;0.50;;;35.70;29.70;;;;;;4865890;29;20421;-86
2022/08/02 15:04:26;;;;;;;0.70;0.50;;;35.50;30.30;;;;;;4853786;29;20449;-89
2022/08/02 15:06:54;;;;;;;0.98;0.38;;;35.70;30.30;;;;;;4856292;29;20855;-88
2022/08/02 15:09:21;;;;;;;0.70;0.50;;;35.90;30.00;;;;;;4856730;29;20427;-88
2022/08/02 15:11:48;;;;;;;2.00;0.38;;;35.90;29.70;;;;;;4864878;29;22691;-85
2022/08/02 15:14:16;;;;;;;1.73;0.40;;;36.10;29.70;;;;;;4872873;29;20429;-87
2022/08/02 15:16:52;;;;;;;2.75;0.57;;;36.40;29.80;;;;;;4869709;29;20427;-88
2022/08/02 15:19:25;;;;;;;1.13;0.50;;;36.20;28.70;;;;;;4864714;29;20437;-88
2022/08/02 15:22:12;;;;;;;1.85;0.45;;;36.10;29.00;;;;;;4864935;29;20441;-80
2022/08/02 15:24:44;;;;;;;1.33;0.40;;;35.80;29.70;;;;;;4865347;29;20429;-83
2022/08/02 15:27:12;;;;;;;0.95;0.40;;;35.80;30.20;;;;;;4859835;29;20431;-84
2022/08/02 15:29:41;;;;;;;1.85;0.45;;;35.90;29.70;;;;;;4865663;29;20437;-86
2022/08/02 15:32:08;;;;;;;2.10;0.70;;;35.80;29.40;;;;;;4856518;29;20910;-85
2022/08/02 15:34:36;;;;;;;0.55;0.50;;;35.80;30.00;;;;;;4858971;29;20516;-83
2022/08/02 15:37:03;;;;;;;2.10;0.40;;;35.90;30.00;;;;;;4859499;29;20431;-84
2022/08/02 15:39:31;;;;;;;1.30;0.50;;;36.00;29.80;;;;;;4857600;29;20436;-81
2022/08/02 15:41:58;;;;;;;1.02;0.40;;;35.90;29.00;;;;;;4863142;29;20421;-82
2022/08/02 15:44:25;;;;;;;2.50;0.40;;;35.90;29.50;;;;;;4866318;29;20984;-86
2022/08/02 15:46:53;;;;;;;1.10;0.40;;;36.00;29.30;;;;;;4837373;29;20478;-82
2022/08/02 15:49:22;;;;;;;0.40;0.40;;;36.00;29.80;;;;;;4865880;29;20496;-84
2022/08/02 15:51:51;;;;;;;1.13;0.50;;;36.00;29.70;;;;;;4859503;29;20430;-88
2022/08/02 15:54:18;;;;;;;2.00;0.30;;;36.00;29.50;;;;;;4873877;29;20425;-83
2022/08/02 15:56:45;;;;;;;0.98;0.43;;;36.10;29.60;;;;;;4868431;29;20491;-83
2022/08/02 15:59:12;;;;;;;3.10;0.40;;;36.10;29.30;;;;;;4870889;29;20431;-83
2022/08/02 16:01:39;;;;;;;1.05;0.40;;;36.10;29.00;;;;;;4865979;29;20924;-82
2022/08/02 16:04:12;;;;;;;0.40;0.40;;;35.90;29.20;;;;;;4867864;29;20438;-83
2022/08/02 16:06:39;;;;;;;2.22;0.40;;;35.80;29.50;;;;;;4866189;29;20444;-84
2022/08/02 16:09:06;;;;;;;1.60;0.40;;;35.80;29.60;;;;;;4860489;29;20462;-81
2022/08/02 16:11:33;;;;;;;1.90;0.50;;;35.70;29.60;;;;;;4856413;29;20428;-88
2022/08/02 16:14:00;;;;;;;1.27;0.50;;;35.40;29.20;;;;;;4860966;29;20532;-83
2022/08/02 16:16:30;;;;;;;0.40;0.40;;;35.20;30.00;;;;;;4869577;29;20904;-87
2022/08/02 16:18:58;;;;;;;1.00;0.40;;;35.20;30.00;;;;;;4873354;29;20475;-87
2022/08/02 16:21:46;;;;;;;1.38;0.50;;;35.30;29.90;;;;;;4862729;29;20475;-84
2022/08/02 16:24:13;;;;;;;0.90;0.40;;;35.20;30.00;;;;;;4865292;29;20855;-84
2022/08/02 16:26:43;;;;;;;1.40;0.40;;;35.20;30.40;;;;;;4860774;29;20839;-82
2022/08/02 16:29:10;;;;;;;1.35;0.50;;;35.20;30.30;;;;;;4875438;29;20492;-87
2022/08/02 16:31:38;;;;;;;1.20;0.45;;;35.10;30.30;;;;;;4871617;29;20429;-83
2022/08/02 16:34:09;;;;;;;0.77;0.50;;;35.00;29.60;;;;;;4860647;29;20481;-88
2022/08/02 16:36:36;;;;;;;1.33;0.40;;;34.90;30.00;;;;;;4870565;29;20477;-83
2022/08/02 16:39:04;;;;;;;1.90;0.50;;;34.90;30.00;;;;;;4865972;29;20429;-86
2022/08/02 16:41:31;;;;;;;4.90;0.90;;;34.80;29.60;;;;;;4876318;29;20939;-86
2022/08/02 16:44:17;;;;;;;1.10;0.50;;;34.50;29.90;;;;;;4878253;29;20413;-82
2022/08/02 16:46:53;;;;;;;0.82;0.50;;;34.50;30.70;;;;;;4869380;29;20428;-83
2022/08/02 16:49:21;;;;;;;0.70;0.43;;;34.60;30.80;;;;;;4861431;29;20501;-83
2022/08/02 16:52:08;;;;;;;0.57;0.40;;;34.80;30.60;;;;;;4858690;29;20434;-86
2022/08/02 16:54:37;;;;;;;1.35;0.50;;;34.90;30.50;;;;;;4858762;29;20429;-83
2022/08/02 16:57:06;;;;;;;0.90;0.30;;;34.90;30.30;;;;;;4854973;29;20441;-82
2022/08/02 16:59:34;;;;;;;0.75;0.40;;;35.00;30.50;;;;;;4859657;29;20448;-82
2022/08/02 17:02:10;;;;;;;1.00;0.47;;;35.10;30.60;;;;;;4868403;29;20437;-82
2022/08/02 17:04:46;;;;;;;2.10;0.50;;;35.20;30.00;;;;;;4859686;29;20429;-82
2022/08/02 17:07:13;;;;;;;2.38;0.40;;;35.20;29.60;;;;;;4853033;29;20844;-82
2022/08/02 17:10:01;;;;;;;0.60;0.40;;;35.10;29.50;;;;;;4861683;29;20528;-83
2022/08/02 17:12:33;;;;;;;0.30;0.30;;;35.00;29.70;;;;;;4874739;29;20803;-83
2022/08/02 17:15:00;;;;;;;1.80;0.40;;;35.00;30.00;;;;;;4861609;29;20995;-83
2022/08/02 17:17:47;;;;;;;0.98;0.43;;;34.90;30.00;;;;;;4864265;29;20447;-84
2022/08/02 17:20:17;;;;;;;1.80;0.50;;;34.90;30.20;;;;;;4859963;29;20425;-84
2022/08/02 17:22:44;;;;;;;0.57;0.40;;;34.70;30.00;;;;;;4858669;29;20427;-82
2022/08/02 17:25:14;;;;;;;1.25;0.50;;;34.60;30.00;;;;;;4864709;29;21147;-84
2022/08/02 17:27:46;;;;;;;0.60;0.40;;;34.50;30.30;;;;;;4857049;29;20479;-82
2022/08/02 17:30:21;;;;;;;1.40;0.50;;;34.30;30.80;;;;;;4863438;29;20497;-82
2022/08/02 17:32:53;;;;;;;1.20;0.40;;;34.30;31.10;;;;;;4862752;29;20488;-83
2022/08/02 17:35:23;;;;;;;1.45;0.35;;;34.30;31.00;;;;;;4850153;29;20797;-86
2022/08/02 17:37:50;;;;;;;1.80;0.40;;;34.30;31.20;;;;;;4863520;29;20437;-84
2022/08/02 17:40:25;;;;;;;0.65;0.40;;;34.20;31.00;;;;;;4859475;29;20415;-85
2022/08/02 17:42:53;;;;;;;1.00;0.40;;;34.20;31.10;;;;;;4857046;29;20436;-83
2022/08/02 17:45:19;;;;;;;0.73;0.40;;;34.10;31.10;;;;;;4852233;29;20495;-83
2022/08/02 17:48:06;;;;;;;0.60;0.40;;;33.90;31.50;;;;;;4866971;29;20433;-82
2022/08/02 17:50:34;;;;;;;1.10;0.40;;;33.80;31.50;;;;;;4866026;29;20445;-83
2022/08/02 17:53:02;;;;;;;0.70;0.47;;;33.70;31.80;;;;;;4871136;29;20419;-83
2022/08/02 17:55:29;;;;;;;0.57;0.30;;;33.60;32.20;;;;;;4876230;29;20423;-83
2022/08/02 17:57:57;;;;;;;1.00;0.40;;;33.60;33.00;;;;;;4855287;29;20443;-83
2022/08/02 18:00:36;;;;;;;0.60;0.40;;;33.60;33.10;;;;;;4863416;29;20446;-86
2022/08/02 18:03:04;;;;;;;1.02;0.43;;;33.50;33.60;;;;;;4873447;29;20437;-82
2022/08/02 18:05:36;;;;;;;1.58;0.55;;;33.30;35.50;;;;;;4852333;29;20423;-83
2022/08/02 18:08:19;;;;;;;2.33;0.90;;;33.00;36.60;;;;;;4845594;29;20931;-82
2022/08/02 18:10:47;;;;;;;4.93;1.48;;;32.80;37.80;;;;;;4850948;29;20447;-85
2022/08/02 18:13:14;;;;;;;2.70;1.60;;;32.70;38.70;;;;;;4863881;29;20424;-82
2022/08/02 18:15:41;;;;;;;2.45;1.50;;;32.50;39.70;;;;;;4863260;29;20475;-83
2022/08/02 18:18:13;;;;;;;3.63;1.50;;;32.20;40.50;;;;;;4871159;29;20510;-83
2022/08/02 18:20:40;;;;;;;2.13;1.27;;;32.00;41.10;;;;;;4873088;29;20436;-82
2022/08/02 18:23:08;;;;;;;2.38;1.15;;;31.70;41.60;;;;;;4869899;29;20439;-82
2022/08/02 18:25:40;;;;;;;1.85;0.70;;;31.50;41.90;;;;;;4880163;29;20423;-83
2022/08/02 18:28:13;;;;;;;0.77;0.68;;;31.30;42.30;;;;;;4858706;29;20429;-83
2022/08/02 18:30:41;;;;;;;0.90;0.60;;;31.10;42.40;;;;;;4850832;29;20459;-85
2022/08/02 18:33:08;;;;;;;0.73;0.57;;;31.00;43.30;;;;;;4858083;29;20489;-82
2022/08/02 18:35:55;;;;;;;1.50;0.60;;;30.90;42.40;;;;;;4860350;29;20427;-82
2022/08/02 18:38:27;;;;;;;1.00;0.40;;;30.70;42.40;;;;;;4869115;29;20421;-82
2022/08/02 18:40:54;;;;;;;0.70;0.50;;;30.60;42.50;;;;;;4857165;29;20513;-82
2022/08/02 18:43:21;;;;;;;0.60;0.55;;;30.50;42.50;;;;;;4854165;29;20435;-82
2022/08/02 18:45:55;;;;;;;1.77;0.47;;;30.40;42.60;;;;;;4862318;29;20443;-85
2022/08/02 18:48:42;;;;;;;0.68;0.68;;;30.30;43.00;;;;;;4867138;29;20417;-85
2022/08/02 18:51:15;;;;;;;0.70;0.50;;;30.20;43.40;;;;;;4869482;29;20439;-83
2022/08/02 18:53:49;;;;;;;1.10;0.80;;;30.10;43.50;;;;;;4860464;29;20432;-84
2022/08/02 18:56:17;;;;;;;1.10;0.60;;;30.00;44.00;;;;;;4855722;29;20465;-84
2022/08/02 18:58:51;;;;;;;0.98;0.63;;;29.90;43.90;;;;;;4859737;29;20827;-82
2022/08/02 19:01:20;;;;;;;1.30;0.52;;;29.80;44.10;;;;;;4861140;29;20435;-82
2022/08/02 19:03:59;;;;;;;0.50;0.50;;;29.70;44.40;;;;;;4863957;29;20880;-83
2022/08/02 19:06:26;;;;;;;0.95;0.60;;;29.60;44.40;;;;;;4869146;29;20852;-84
2022/08/02 19:09:13;;;;;;;1.20;0.45;;;29.50;44.70;;;;;;4860291;29;20498;-86
2022/08/02 19:11:41;;;;;;;1.20;0.60;;;29.50;45.10;;;;;;4868973;29;20431;-84
2022/08/02 19:14:17;;;;;;;0.95;0.50;;;29.40;45.50;;;;;;4853711;29;20431;-84
2022/08/02 19:16:54;;;;;;;0.50;0.50;;;29.30;45.50;;;;;;4846460;29;20434;-84
2022/08/02 19:19:22;;;;;;;0.85;0.60;;;29.20;45.70;;;;;;4864516;29;20429;-84
2022/08/02 19:21:56;;;;;;;0.90;0.50;;;29.10;46.10;;;;;;4859347;29;20433;-84
2022/08/02 19:24:43;;;;;;;0.45;0.40;;;29.00;45.70;;;;;;4864482;29;20415;-84
2022/08/02 19:27:12;;;;;;;0.50;0.50;;;28.90;45.40;;;;;;4861991;29;20416;-83
2022/08/02 19:29:41;;;;;;;1.02;0.60;;;28.80;46.40;;;;;;4871914;29;20924;-84
2022/08/02 19:32:15;;;;;;;1.17;0.60;;;28.70;47.10;;;;;;4860655;29;20473;-84
2022/08/02 19:35:04;;;;;;;1.40;0.80;;;28.60;48.00;;;;;;4852158;29;20785;-84
2022/08/02 19:37:50;;;;;;;1.60;0.68;;;28.50;48.50;;;;;;4857648;29;20423;-85
2022/08/02 19:40:22;;;;;;;0.80;0.60;;;28.30;49.10;;;;;;4856169;29;20913;-85
2022/08/02 19:42:50;;;;;;;1.60;0.75;;;28.10;50.00;;;;;;4863853;29;20427;-83
2022/08/02 19:45:37;;;;;;;1.00;0.80;;;28.10;50.70;;;;;;4858532;29;20481;-84
2022/08/02 19:48:16;;;;;;;1.30;0.70;;;27.90;50.80;;;;;;4868537;29;20502;-84
2022/08/02 19:50:53;;;;;;;1.80;0.70;;;27.80;51.30;;;;;;4851559;29;20433;-83
2022/08/02 19:53:28;;;;;;;3.30;0.80;;;27.80;51.70;;;;;;4846692;29;20798;-84
2022/08/02 19:56:16;;;;;;;1.10;0.90;;;27.70;51.90;;;;;;4856868;29;20436;-83
2022/08/02 19:58:50;;;;;;;2.25;1.13;;;27.70;52.30;;;;;;4869320;29;20425;-84
2022/08/02 20:01:19;;;;;;;0.65;0.65;;;27.60;52.60;;;;;;4853560;29;20432;-84
2022/08/02 20:04:06;;;;;;;1.95;0.70;;;27.50;52.70;;;;;;4857171;29;20495;-83
2022/08/02 20:06:43;;;;;;;1.08;0.93;;;27.40;52.80;;;;;;4854567;29;20478;-83
2022/08/02 20:09:14;;;;;;;1.15;0.70;;;27.40;52.80;;;;;;4854778;29;20423;-84
2022/08/02 20:11:44;;;;;;;1.27;0.70;;;27.30;53.00;;;;;;4859960;29;20853;-84
2022/08/02 20:14:12;;;;;;;1.20;0.93;;;27.20;53.70;;;;;;4850459;29;20438;-84
2022/08/02 20:16:39;;;;;;;1.67;0.98;;;27.20;53.40;;;;;;4854838;29;20421;-85
2022/08/02 20:19:07;;;;;;;1.50;0.90;;;27.00;54.30;;;;;;4859567;29;20500;-82
2022/08/02 20:21:35;;;;;;;2.23;1.20;;;26.80;55.70;;;;;;4875432;29;20442;-83
2022/08/02 20:24:08;;;;;;;1.50;1.10;;;26.70;56.20;;;;;;4861403;29;20429;-84
2022/08/02 20:26:39;;;;;;;1.38;1.10;;;26.60;56.70;;;;;;4856216;29;20917;-84
2022/08/02 20:29:15;;;;;;;1.20;0.90;;;26.50;56.90;;;;;;4861808;29;20510;-85
2022/08/02 20:32:03;;;;;;;1.67;0.90;;;26.40;56.70;;;;;;4859576;29;20425;-84
2022/08/02 20:34:30;;;;;;;1.77;1.00;;;26.30;56.30;;;;;;4856673;29;20429;-83
2022/08/02 20:36:59;;;;;;;1.30;1.00;;;26.30;56.50;;;;;;4870484;29;20409;-85
2022/08/02 20:39:46;;;;;;;1.70;1.00;;;26.30;56.60;;;;;;4849142;29;20431;-84
2022/08/02 20:42:15;;;;;;;1.00;0.82;;;26.20;56.50;;;;;;4874167;29;20854;-85
2022/08/02 20:44:52;;;;;;;0.90;0.90;;;26.20;56.50;;;;;;4853773;29;20416;-85
2022/08/02 20:47:20;;;;;;;1.38;0.98;;;26.10;56.20;;;;;;4860288;29;20418;-84
2022/08/02 20:52:42;;;;;;;1.63;0.90;;;26.10;55.80;;;;;;4851504;29;20433;-84
2022/08/02 20:55:14;;;;;;;1.40;1.00;;;26.00;56.10;;;;;;4857632;29;20421;-85
2022/08/02 20:57:43;;;;;;;0.90;0.90;;;25.90;56.40;;;;;;4857835;29;20422;-85
2022/08/02 21:00:30;;;;;;;1.05;0.90;;;25.80;56.70;;;;;;4857056;29;20789;-85
2022/08/02 21:02:58;;;;;;;1.10;0.93;;;25.70;57.10;;;;;;4848172;29;20458;-85
2022/08/02 21:05:26;;;;;;;1.30;1.00;;;25.60;57.60;;;;;;4859523;29;20425;-85
2022/08/02 21:08:14;;;;;;;1.20;1.10;;;25.50;57.80;;;;;;4859932;29;20447;-85
2022/08/02 21:10:42;;;;;;;1.17;0.90;;;25.40;57.60;;;;;;4852494;29;20569;-86
2022/08/02 21:13:25;;;;;;;2.40;1.00;;;25.40;57.60;;;;;;4861348;29;20419;-85
2022/08/02 21:15:53;;;;;;;1.45;1.08;;;25.30;58.00;;;;;;4855054;29;20428;-85
2022/08/02 21:18:22;;;;;;;1.30;1.08;;;25.30;58.70;;;;;;4854776;29;20444;-85
2022/08/02 21:21:03;;;;;;;1.40;1.00;;;25.30;59.20;;;;;;4853190;29;20484;-83
2022/08/02 21:23:31;;;;;;;1.33;1.00;;;25.20;59.20;;;;;;4857581;29;20488;-85
2022/08/02 21:26:03;;;;;;;1.20;0.90;;;25.20;59.10;;;;;;4860062;29;20514;-83
2022/08/02 21:28:30;;;;;;;2.00;1.20;;;25.10;59.20;;;;;;4858453;29;20447;-83
2022/08/02 21:31:14;;;;;;;1.80;0.93;;;25.10;59.30;;;;;;4856178;29;20441;-86
2022/08/02 21:33:42;;;;;;;1.98;1.00;;;25.00;59.60;;;;;;4856492;29;20435;-84
2022/08/02 21:36:29;;;;;;;1.17;1.08;;;24.90;60.20;;;;;;4859462;29;20453;-85
2022/08/02 21:39:10;;;;;;;1.42;1.00;;;24.70;61.00;;;;;;4870218;29;20491;-84
2022/08/02 21:41:39;;;;;;;1.25;1.10;;;24.60;61.50;;;;;;4869765;29;20428;-84
2022/08/02 21:44:17;;;;;;;1.30;0.90;;;24.60;61.60;;;;;;4865680;29;20423;-85
2022/08/02 21:46:49;;;;;;;1.30;1.02;;;24.60;61.80;;;;;;4873365;29;20416;-85
2022/08/02 21:49:18;;;;;;;1.50;1.02;;;24.40;62.30;;;;;;4862715;29;20443;-84
2022/08/02 21:51:46;;;;;;;1.17;0.90;;;24.30;62.60;;;;;;4872025;29;20426;-85
2022/08/02 21:54:17;;;;;;;1.20;1.10;;;24.20;62.90;;;;;;4867165;29;20487;-84
2022/08/02 21:56:48;;;;;;;1.45;0.90;;;24.20;63.10;;;;;;4865186;29;20485;-82
2022/08/02 21:59:20;;;;;;;1.38;0.95;;;24.20;63.20;;;;;;4860900;29;20520;-85
2022/08/02 22:01:55;;;;;;;1.20;0.80;;;24.20;63.00;;;;;;4684725;29;135407;-84
2022/08/02 22:04:24;;;;;;;1.48;1.00;;;24.30;63.10;;;;;;4854603;29;20432;-84
2022/08/02 22:06:52;;;;;;;1.10;1.00;;;24.30;62.80;;;;;;4859633;29;20544;-84
2022/08/02 22:09:21;;;;;;;1.10;1.00;;;24.30;62.70;;;;;;4856364;29;20966;-84
2022/08/02 22:12:08;;;;;;;1.20;1.10;;;24.30;62.70;;;;;;4854338;29;20574;-85
2022/08/02 22:14:36;;;;;;;1.98;1.20;;;24.30;63.20;;;;;;4864264;29;20429;-84
2022/08/02 22:17:06;;;;;;;1.20;1.00;;;24.30;63.60;;;;;;4873110;29;20920;-84
2022/08/02 22:19:39;;;;;;;2.20;1.20;;;24.20;63.60;;;;;;4865901;29;20438;-85
2022/08/02 22:22:21;;;;;;;1.10;0.98;;;24.10;64.90;;;;;;4864813;29;20460;-85
2022/08/02 22:24:55;;;;;;;2.25;0.95;;;24.10;64.10;;;;;;4867014;29;20479;-83
2022/08/02 22:27:23;;;;;;;1.27;0.88;;;24.10;64.30;;;;;;4876395;29;20431;-85
2022/08/02 22:30:10;;;;;;;1.80;1.10;;;24.00;64.30;;;;;;4863415;29;20433;-83
2022/08/02 22:35:41;;;;;;;1.33;1.23;;;23.90;64.80;;;;;;4854524;29;20802;-83
2022/08/02 22:38:08;;;;;;;1.23;1.10;;;23.80;64.80;;;;;;4866536;29;20420;-86
2022/08/02 22:40:43;;;;;;;1.30;1.05;;;23.80;64.80;;;;;;4859743;29;20783;-85
2022/08/02 22:43:11;;;;;;;0.90;0.90;;;23.80;64.80;;;;;;4863136;29;20463;-84
2022/08/02 22:45:48;;;;;;;1.20;1.10;;;23.80;64.50;;;;;;4877583;29;20426;-85
2022/08/02 22:48:16;;;;;;;1.65;1.10;;;23.80;64.50;;;;;;4855896;29;20437;-85
2022/08/02 22:50:43;;;;;;;1.88;1.20;;;23.80;64.30;;;;;;4858262;29;20427;-84
2022/08/02 22:53:10;;;;;;;1.50;0.80;;;23.80;64.40;;;;;;4874426;29;20955;-85
2022/08/02 22:55:38;;;;;;;1.50;1.10;;;23.80;64.40;;;;;;4865808;29;20450;-85
2022/08/02 22:58:08;;;;;;;1.10;0.90;;;23.80;64.40;;;;;;4884406;29;20427;-84
2022/08/02 23:00:34;;;;;;;1.10;0.90;;;23.70;64.70;;;;;;4869499;29;20444;-86
2022/08/02 23:03:02;;;;;;;1.10;1.00;;;23.80;64.60;;;;;;4879079;29;20420;-85
2022/08/02 23:05:32;;;;;;;1.10;1.00;;;23.70;65.10;;;;;;4871034;29;20567;-84
2022/08/02 23:07:59;;;;;;;1.13;1.00;;;23.80;65.20;;;;;;4857137;29;20494;-86
2022/08/02 23:10:28;;;;;;;1.02;0.93;;;23.80;64.80;;;;;;4877650;29;20472;-85
2022/08/02 23:12:57;;;;;;;1.48;1.38;;;23.70;64.90;;;;;;4850835;29;20429;-85
2022/08/02 23:15:25;;;;;;;1.83;1.30;;;23.60;65.20;;;;;;4863978;29;20946;-85
2022/08/02 23:20:39;;;;;;;1.10;1.00;;;23.30;66.40;;;;;;4862714;29;20424;-83
2022/08/02 23:23:06;;;;;;;1.08;0.98;;;23.30;66.50;;;;;;4882621;29;20453;-85
2022/08/02 23:25:37;;;;;;;4.40;1.45;;;23.30;66.40;;;;;;4873814;29;20432;-85
2022/08/02 23:28:04;;;;;;;1.50;1.07;;;23.30;66.60;;;;;;4887689;29;20429;-84
2022/08/02 23:30:31;;;;;;;1.52;1.10;;;23.30;66.50;;;;;;4878070;29;20423;-84
2022/08/02 23:32:58;;;;;;;1.60;1.33;;;23.30;66.40;;;;;;4869972;29;20519;-85
2022/08/02 23:35:25;;;;;;;1.30;1.20;;;23.20;66.30;;;;;;4878829;29;20435;-84
2022/08/02 23:37:51;;;;;;;1.10;1.00;;;23.20;66.50;;;;;;4868851;29;20481;-83
2022/08/02 23:40:28;;;;;;;1.33;1.10;;;23.20;66.40;;;;;;4856435;29;20475;-85
2022/08/02 23:43:08;;;;;;;1.10;1.00;;;23.20;66.20;;;;;;4879088;29;20428;-85
2022/08/02 23:45:41;;;;;;;1.42;0.93;;;23.20;66.10;;;;;;4878430;29;20416;-84
2022/08/02 23:48:07;;;;;;;1.73;1.30;;;23.10;65.80;;;;;;4887982;29;20489;-84
2022/08/02 23:50:34;;;;;;;1.58;1.48;;;23.10;65.80;;;;;;4871740;29;20460;-85